createdAt,value
2022-09-20T00:01:12.397Z,95058.25
2022-09-20T00:03:42.584Z,95037.41
2022-09-20T00:06:20.784Z,95045.56
2022-09-20T00:08:48.775Z,95043.81
2022-09-20T00:11:28.652Z,95049.44
2022-09-20T00:13:57.771Z,95028.06
2022-09-20T00:16:28.454Z,95053.47
2022-09-20T00:18:57.319Z,95055.50
2022-09-20T00:21:27.300Z,95036.13
2022-09-20T00:23:54.850Z,95058.84
2022-09-20T00:26:22.316Z,95054.31
2022-09-20T00:28:50.282Z,95044.59
2022-09-20T00:31:17.962Z,95053.03
2022-09-20T00:34:03.591Z,95057.84
2022-09-20T00:36:31.337Z,95045.91
2022-09-20T00:39:00.310Z,95031.22
2022-09-20T00:41:27.270Z,95030.06
2022-09-20T00:43:55.180Z,95052.56
2022-09-20T00:46:40.535Z,95042.13
2022-09-20T00:49:21.483Z,95052.06
2022-09-20T00:51:58.175Z,95054.91
2022-09-20T00:54:27.130Z,95054.75
2022-09-20T00:56:54.495Z,95050.22
2022-09-20T00:59:38.055Z,95065.78
2022-09-20T01:02:21.628Z,95066.81
2022-09-20T01:04:50.201Z,95054.66
2022-09-20T01:07:22.427Z,95039.75
2022-09-20T01:09:50.573Z,95061.75
2022-09-20T01:12:28.659Z,95050.97
2022-09-20T01:14:56.442Z,95050.56
2022-09-20T01:17:27.019Z,95061.53
2022-09-20T01:20:12.837Z,95064.88
2022-09-20T01:23:02.731Z,95049.41
2022-09-20T01:26:08.357Z,95065.72
2022-09-20T01:28:36.596Z,95054.97
2022-09-20T01:31:24.980Z,95056.75
2022-09-20T01:34:21.560Z,95063.94
2022-09-20T01:37:01.974Z,95054.59
2022-09-20T01:39:53.881Z,95047.78
2022-09-20T01:42:26.422Z,95043.78
2022-09-20T01:45:29.055Z,95057.34
2022-09-20T01:48:19.501Z,95047.81
2022-09-20T01:51:09.883Z,95053.00
2022-09-20T01:53:55.489Z,95048.59
2022-09-20T01:56:43.742Z,95050.22
2022-09-20T01:59:55.480Z,95055.41
2022-09-20T02:02:22.317Z,95062.44
2022-09-20T02:05:06.969Z,95054.66
2022-09-20T02:08:08.184Z,95059.84
2022-09-20T02:10:50.450Z,95051.47
2022-09-20T02:13:32.395Z,95032.66
2022-09-20T02:16:16.698Z,95060.53
2022-09-20T02:19:12.534Z,95047.19
2022-09-20T02:21:51.983Z,95041.22
2022-09-20T02:25:03.688Z,95033.25
2022-09-20T02:27:55.391Z,95020.31
2022-09-20T02:30:37.291Z,95043.25
2022-09-20T02:33:16.452Z,95037.28
2022-09-20T02:35:59.914Z,95036.91
2022-09-20T02:38:45.715Z,95034.50
2022-09-20T02:41:37.583Z,95042.53
2022-09-20T02:44:35.518Z,95042.16
2022-09-20T02:47:22.231Z,95053.38
2022-09-20T02:50:02.489Z,95034.28
2022-09-20T02:52:47.897Z,95047.41
2022-09-20T02:55:21.540Z,95049.03
2022-09-20T02:58:19.536Z,95056.19
2022-09-20T03:01:07.933Z,95044.84
2022-09-20T03:03:54.547Z,95038.88
2022-09-20T03:06:55.383Z,95051.84
2022-09-20T03:09:38.514Z,95061.38
2022-09-20T03:12:30.526Z,95052.63
2022-09-20T03:15:09.502Z,95056.22
2022-09-20T03:18:15.057Z,95058.59
2022-09-20T03:20:58.237Z,95064.16
2022-09-20T03:23:51.780Z,95064.59
2022-09-20T03:26:32.494Z,95065.38
2022-09-20T03:29:18.333Z,95076.13
2022-09-20T03:32:21.756Z,95080.66
2022-09-20T03:35:19.623Z,95076.31
2022-09-20T03:38:06.872Z,95075.69
2022-09-20T03:40:36.505Z,95083.84
2022-09-20T03:43:19.142Z,95072.47
2022-09-20T03:46:05.695Z,95088.41
2022-09-20T03:48:32.456Z,95085.16
2022-09-20T03:51:32.924Z,95086.34
2022-09-20T03:54:33.527Z,95101.47
2022-09-20T03:57:27.572Z,95095.47
2022-09-20T04:00:25.535Z,95094.28
2022-09-20T04:03:19.669Z,95085.28
2022-09-20T04:06:24.461Z,95096.63
2022-09-20T04:09:17.387Z,95080.69
2022-09-20T04:11:53.153Z,95088.44
2022-09-20T04:14:51.753Z,95064.94
2022-09-20T04:17:39.483Z,95078.06
2022-09-20T04:20:20.602Z,95105.31
2022-09-20T04:22:51.524Z,95101.75
2022-09-20T04:25:23.860Z,95105.31
2022-09-20T04:27:57.263Z,95100.56
2022-09-20T04:30:30.679Z,95109.72
2022-09-20T04:33:05.898Z,95112.72
2022-09-20T04:36:03.528Z,95116.94
2022-09-20T04:38:31.056Z,95117.34
2022-09-20T04:41:04.070Z,95121.53
2022-09-20T04:43:52.451Z,95120.16
2022-09-20T04:46:31.343Z,95122.34
2022-09-20T04:49:27.720Z,95119.00
2022-09-20T04:52:23.709Z,95118.84
2022-09-20T04:55:21.321Z,95124.25
2022-09-20T04:58:44.272Z,95129.81
2022-09-20T05:01:36.192Z,95138.59
2022-09-20T05:04:24.094Z,95133.03
2022-09-20T05:07:04.404Z,95127.47
2022-09-20T05:09:31.260Z,95131.84
2022-09-20T05:12:42.702Z,95132.44
2022-09-20T05:15:29.096Z,95133.47
2022-09-20T05:18:04.766Z,95131.09
2022-09-20T05:21:12.957Z,95138.63
2022-09-20T05:23:58.588Z,95139.84
2022-09-20T05:26:56.346Z,95141.84
2022-09-20T05:29:51.115Z,95145.41
2022-09-20T05:32:34.208Z,95119.13
2022-09-20T05:35:19.739Z,95129.88
2022-09-20T05:38:11.714Z,95144.41
2022-09-20T05:41:07.550Z,95136.25
2022-09-20T05:43:42.714Z,95145.78
2022-09-20T05:46:24.802Z,95142.19
2022-09-20T05:49:03.613Z,95141.34
2022-09-20T05:51:52.442Z,95146.13
2022-09-20T05:54:35.925Z,95148.47
2022-09-20T05:57:29.006Z,95143.25
2022-09-20T06:00:08.562Z,95146.06
2022-09-20T06:03:12.314Z,95155.19
2022-09-20T06:05:45.713Z,95149.81
2022-09-20T06:08:25.840Z,95151.09
2022-09-20T06:11:24.428Z,95146.66
2022-09-20T06:14:10.250Z,95154.97
2022-09-20T06:16:36.987Z,95147.31
2022-09-20T06:19:15.126Z,95159.69
2022-09-20T06:21:52.861Z,95158.53
2022-09-20T06:24:51.741Z,95155.59
2022-09-20T06:27:24.606Z,95160.63
2022-09-20T06:29:57.503Z,95147.81
2022-09-20T06:32:24.409Z,95160.03
2022-09-20T06:34:52.057Z,95148.00
2022-09-20T06:38:11.305Z,95146.63
2022-09-20T06:41:03.885Z,95149.38
2022-09-20T06:43:31.922Z,95149.69
2022-09-20T06:45:59.259Z,95145.94
2022-09-20T06:48:26.096Z,95152.44
2022-09-20T06:50:52.966Z,95140.16
2022-09-20T06:53:29.213Z,95123.09
2022-09-20T06:55:57.498Z,95155.31
2022-09-20T06:58:24.403Z,95132.50
2022-09-20T07:00:51.284Z,95156.34
2022-09-20T07:03:20.068Z,95155.25
2022-09-20T07:05:47.282Z,95157.16
2022-09-20T07:08:14.022Z,95159.72
2022-09-20T07:10:41.268Z,95170.41
2022-09-20T07:13:08.366Z,95166.31
2022-09-20T07:15:38.138Z,95160.91
2022-09-20T07:18:05.234Z,95164.63
2022-09-20T07:20:31.960Z,95167.06
2022-09-20T07:22:59.432Z,95166.41
2022-09-20T07:25:26.283Z,95163.22
2022-09-20T07:27:53.159Z,95164.91
2022-09-20T07:30:20.584Z,95160.38
2022-09-20T07:32:49.529Z,95162.91
2022-09-20T07:35:16.758Z,95162.91
2022-09-20T07:37:43.745Z,95158.47
2022-09-20T07:40:11.820Z,95156.88
2022-09-20T07:42:39.175Z,95168.88
2022-09-20T07:45:07.310Z,95156.19
2022-09-20T07:47:35.553Z,95134.06
2022-09-20T07:50:03.825Z,95139.59
2022-09-20T07:52:31.072Z,95152.16
2022-09-20T07:54:58.095Z,95154.97
2022-09-20T07:57:24.906Z,95152.16
2022-09-20T07:59:51.692Z,95146.19
2022-09-20T08:02:18.632Z,95140.69
2022-09-20T08:04:45.402Z,95158.84
2022-09-20T08:07:12.847Z,95142.13
2022-09-20T08:09:39.802Z,95147.97
2022-09-20T08:14:55.668Z,95142.75
2022-09-20T08:17:22.449Z,95144.19
2022-09-20T08:19:50.714Z,95140.53
2022-09-20T08:22:17.751Z,95135.63
2022-09-20T08:24:44.929Z,95128.50
2022-09-20T08:27:11.835Z,95151.31
2022-09-20T08:29:38.563Z,95138.53
2022-09-20T08:32:05.377Z,95141.03
2022-09-20T08:34:32.164Z,95137.25
2022-09-20T08:36:59.696Z,95135.72
2022-09-20T08:42:18.035Z,95135.34
2022-09-20T08:45:33.677Z,95133.22
2022-09-20T08:48:05.779Z,95133.00
2022-09-20T08:50:34.779Z,95136.56
2022-09-20T08:53:05.692Z,95127.94
2022-09-20T08:55:36.851Z,95122.41
2022-09-20T08:58:08.461Z,95118.84
2022-09-20T09:00:37.493Z,95111.63
2022-09-20T09:03:17.260Z,95116.16
2022-09-20T09:05:53.138Z,95120.19
2022-09-20T09:08:28.595Z,95108.25
2022-09-20T09:11:14.277Z,95116.34
2022-09-20T09:14:30.743Z,95094.56
2022-09-20T09:16:58.238Z,95102.13
2022-09-20T09:19:36.545Z,95090.91
2022-09-20T09:22:05.454Z,95095.75
2022-09-20T09:24:32.519Z,95092.56
2022-09-20T09:27:07.993Z,95094.53
2022-09-20T09:29:35.091Z,95086.84
2022-09-20T09:32:29.259Z,95083.78
2022-09-20T09:34:57.438Z,95084.38
2022-09-20T09:37:31.358Z,95084.94
2022-09-20T09:40:19.014Z,95084.16
2022-09-20T09:42:57.776Z,95083.34
2022-09-20T09:45:27.128Z,95094.63
2022-09-20T09:47:55.421Z,95088.53
2022-09-20T09:50:30.666Z,95086.00
2022-09-20T09:53:04.374Z,95092.31
2022-09-20T09:55:52.870Z,95064.50
2022-09-20T09:58:56.249Z,95083.97
2022-09-20T10:01:33.527Z,95089.25
2022-09-20T10:04:19.771Z,95104.44
2022-09-20T10:07:17.790Z,95087.28
2022-09-20T10:10:07.420Z,95097.47
2022-09-20T10:13:23.631Z,95088.63
2022-09-20T10:16:09.853Z,95071.28
2022-09-20T10:18:55.670Z,95080.75
2022-09-20T10:21:48.808Z,95080.78
2022-09-20T10:24:33.141Z,95071.53
2022-09-20T10:27:08.927Z,95075.47
2022-09-20T10:29:54.426Z,95068.69
2022-09-20T10:32:52.216Z,95068.69
2022-09-20T10:35:33.854Z,95067.13
2022-09-20T10:38:16.288Z,95062.78
2022-09-20T10:41:23.454Z,95071.66
2022-09-20T10:44:12.856Z,95057.50
2022-09-20T10:46:51.756Z,95067.13
2022-09-20T10:49:27.253Z,95054.84
2022-09-20T10:52:01.293Z,95070.53
2022-09-20T10:54:39.929Z,95058.97
2022-09-20T10:57:46.838Z,95067.00
2022-09-20T11:00:42.292Z,95061.47
2022-09-20T11:03:46.555Z,95059.31
2022-09-20T11:06:32.382Z,95042.59
2022-09-20T11:09:02.575Z,95044.38
2022-09-20T11:11:41.564Z,95063.69
2022-09-20T11:14:19.405Z,95053.25
2022-09-20T11:17:01.873Z,95060.06
2022-09-20T11:19:47.765Z,95046.72
2022-09-20T11:22:18.979Z,95043.97
2022-09-20T11:25:04.430Z,95013.88
2022-09-20T11:27:38.062Z,95034.78
2022-09-20T11:30:17.432Z,95034.53
2022-09-20T11:32:59.310Z,95025.47
2022-09-20T11:35:53.038Z,95028.78
2022-09-20T11:38:40.804Z,95030.22
2022-09-20T11:41:16.255Z,95040.13
2022-09-20T11:43:44.595Z,95026.00
2022-09-20T11:46:18.464Z,95018.13
2022-09-20T11:49:31.907Z,95026.34
2022-09-20T11:52:10.978Z,95037.53
2022-09-20T11:54:40.715Z,95028.00
2022-09-20T11:57:15.831Z,95022.66
2022-09-20T11:59:51.504Z,95023.50
2022-09-20T12:02:21.867Z,95025.75
2022-09-20T12:04:53.412Z,95018.22
2022-09-20T12:07:28.597Z,95019.97
2022-09-20T12:10:02.882Z,95023.47
2022-09-20T12:12:44.218Z,95015.22
2022-09-20T12:15:28.437Z,95022.72
2022-09-20T12:18:09.586Z,95018.66
2022-09-20T12:20:38.670Z,95014.81
2022-09-20T12:23:40.627Z,95019.84
2022-09-20T12:26:07.964Z,95000.22
2022-09-20T12:28:37.783Z,95008.66
2022-09-20T12:31:23.129Z,95005.13
2022-09-20T12:34:11.921Z,95006.72
2022-09-20T12:36:43.131Z,95002.25
2022-09-20T12:39:15.304Z,95000.75
2022-09-20T12:41:47.763Z,95005.75
2022-09-20T12:44:36.482Z,95000.09
2022-09-20T12:47:12.580Z,95004.06
2022-09-20T12:50:04.147Z,95002.84
2022-09-20T12:52:55.742Z,94976.56
2022-09-20T12:55:40.661Z,95002.66
2022-09-20T12:58:16.494Z,94994.00
2022-09-20T13:00:46.704Z,94993.25
2022-09-20T13:03:22.083Z,95002.81
2022-09-20T13:05:54.341Z,94992.91
2022-09-20T13:08:25.463Z,94989.88
2022-09-20T13:11:01.238Z,94991.91
2022-09-20T13:13:51.864Z,95005.59
2022-09-20T13:16:39.940Z,94992.53
2022-09-20T13:19:09.771Z,94994.28
2022-09-20T13:21:40.473Z,94986.91
2022-09-20T13:24:11.296Z,94986.50
2022-09-20T13:26:46.193Z,94991.53
2022-09-20T13:29:39.166Z,94993.78
2022-09-20T13:32:35.870Z,94999.00
2022-09-20T13:35:06.973Z,94987.75
2022-09-20T13:37:35.111Z,94978.00
2022-09-20T13:40:03.308Z,94983.72
2022-09-20T13:42:31.971Z,94977.59
2022-09-20T13:44:59.312Z,94981.63
2022-09-20T13:47:31.938Z,94978.66
2022-09-20T13:50:18.509Z,94993.84
2022-09-20T13:52:54.372Z,94982.91
2022-09-20T13:55:33.467Z,94981.44
2022-09-20T13:58:17.147Z,94983.88
2022-09-20T14:00:50.531Z,94979.78
2022-09-20T14:03:18.711Z,94987.22
2022-09-20T14:05:51.626Z,94965.59
2022-09-20T14:08:46.505Z,94981.69
2022-09-20T14:11:22.927Z,94973.00
2022-09-20T14:13:59.174Z,94990.41
2022-09-20T14:16:35.034Z,94977.41
2022-09-20T14:19:04.006Z,94980.56
2022-09-20T14:21:35.747Z,94975.50
2022-09-20T14:24:32.558Z,94983.78
2022-09-20T14:27:21.487Z,94978.28
2022-09-20T14:29:51.136Z,94986.22
2022-09-20T14:32:17.869Z,94984.22
2022-09-20T14:35:00.509Z,94972.59
2022-09-20T14:37:32.769Z,94982.13
2022-09-20T14:40:03.695Z,94978.19
2022-09-20T14:42:41.402Z,94971.38
2022-09-20T14:45:20.447Z,94971.22
2022-09-20T14:47:55.476Z,94978.63
2022-09-20T14:50:24.315Z,94974.50
2022-09-20T14:53:11.484Z,94987.03
2022-09-20T14:55:40.415Z,94991.97
2022-09-20T14:58:11.228Z,94979.03
2022-09-20T15:00:47.604Z,94994.16
2022-09-20T15:03:17.169Z,94989.06
2022-09-20T15:05:50.039Z,94985.88
2022-09-20T15:08:20.555Z,94985.88
2022-09-20T15:10:47.827Z,94995.44
2022-09-20T15:13:15.230Z,95010.59
2022-09-20T15:15:44.430Z,94998.78
2022-09-20T15:18:21.786Z,94991.59
2022-09-20T15:20:50.129Z,95001.88
2022-09-20T15:23:17.247Z,94992.53
2022-09-20T15:25:44.432Z,95010.38
2022-09-20T15:28:18.759Z,94995.34
2022-09-20T15:30:52.574Z,94980.81
2022-09-20T15:33:21.275Z,94991.66
2022-09-20T15:35:48.701Z,94993.84
2022-09-20T15:38:18.359Z,94999.03
2022-09-20T15:40:47.901Z,94995.72
2022-09-20T15:43:17.547Z,94999.72
2022-09-20T15:45:50.234Z,94997.56
2022-09-20T15:48:21.495Z,95002.25
2022-09-20T15:51:11.377Z,94993.72
2022-09-20T15:53:41.390Z,95002.94
2022-09-20T15:56:27.433Z,95001.44
2022-09-20T15:58:59.225Z,95004.00
2022-09-20T16:01:32.389Z,95005.97
2022-09-20T16:04:00.133Z,95001.53
2022-09-20T16:06:26.951Z,95001.84
2022-09-20T16:08:53.793Z,94995.28
2022-09-20T16:11:23.016Z,95004.59
2022-09-20T16:13:54.503Z,94998.19
2022-09-20T16:16:21.612Z,94999.56
2022-09-20T16:19:07.892Z,95005.22
2022-09-20T16:21:36.614Z,95000.31
2022-09-20T16:24:03.561Z,95001.28
2022-09-20T16:26:31.334Z,95004.81
2022-09-20T16:28:58.713Z,95000.41
2022-09-20T16:31:42.134Z,95007.72
2022-09-20T16:34:19.423Z,95008.09
2022-09-20T16:36:47.581Z,95009.50
2022-09-20T16:39:15.927Z,95007.31
2022-09-20T16:41:44.487Z,95010.31
2022-09-20T16:44:11.323Z,95004.97
2022-09-20T16:46:38.026Z,95020.50
2022-09-20T16:49:13.543Z,95022.56
2022-09-20T16:51:42.575Z,95012.41
2022-09-20T16:54:14.930Z,95029.59
2022-09-20T16:56:47.043Z,95022.09
2022-09-20T16:59:15.908Z,95033.47
2022-09-20T17:01:44.202Z,95028.53
2022-09-20T17:04:14.393Z,95034.69
2022-09-20T17:06:43.540Z,95019.19
2022-09-20T17:09:12.281Z,95027.25
2022-09-20T17:11:42.284Z,95020.84
2022-09-20T17:14:09.708Z,95034.09
2022-09-20T17:16:38.814Z,95040.91
2022-09-20T17:19:07.455Z,95045.38
2022-09-20T17:21:36.736Z,95046.72
2022-09-20T17:24:06.287Z,95043.22
2022-09-20T17:26:38.915Z,95046.53
2022-09-20T17:29:07.706Z,95034.63
2022-09-20T17:31:39.144Z,95042.94
2022-09-20T17:34:09.574Z,95047.13
2022-09-20T17:36:41.932Z,95048.06
2022-09-20T17:39:11.153Z,95054.16
2022-09-20T17:41:41.983Z,95046.59
2022-09-20T17:44:10.127Z,95043.06
2022-09-20T17:46:39.328Z,95054.97
2022-09-20T17:49:11.108Z,95057.25
2022-09-20T17:51:42.279Z,95054.75
2022-09-20T17:54:13.781Z,95059.22
2022-09-20T17:56:42.761Z,95066.22
2022-09-20T17:59:10.813Z,95063.94
2022-09-20T18:01:38.946Z,95070.28
2022-09-20T18:04:06.988Z,95062.56
2022-09-20T18:06:45.262Z,95061.44
2022-09-20T18:09:15.590Z,95072.31
2022-09-20T18:11:49.084Z,95075.59
2022-09-20T18:14:21.223Z,95070.47
2022-09-20T18:16:48.146Z,95075.44
2022-09-20T18:19:16.158Z,95080.59
2022-09-20T18:21:43.403Z,95081.94
2022-09-20T18:24:11.557Z,95081.59
2022-09-20T18:26:39.583Z,95080.69
2022-09-20T18:29:12.402Z,95086.31
2022-09-20T18:31:58.029Z,95087.34
2022-09-20T18:34:31.329Z,95087.78
2022-09-20T18:36:59.829Z,95089.38
2022-09-20T18:39:34.993Z,95088.69
2022-09-20T18:42:03.310Z,95091.13
2022-09-20T18:44:34.002Z,95090.84
2022-09-20T18:47:02.708Z,95092.88
2022-09-20T18:49:30.662Z,95089.44
2022-09-20T18:51:58.431Z,95085.97
2022-09-20T18:54:25.246Z,95091.75
2022-09-20T18:56:52.532Z,95078.47
2022-09-20T18:59:21.827Z,95091.34
2022-09-20T19:01:48.880Z,95096.25
2022-09-20T19:04:37.627Z,95083.97
2022-09-20T19:07:13.525Z,95085.25
2022-09-20T19:09:50.793Z,95091.75
2022-09-20T19:12:39.211Z,95086.81
2022-09-20T19:15:08.834Z,95090.28
2022-09-20T19:17:50.588Z,95086.72
2022-09-20T19:20:29.789Z,95092.41
2022-09-20T19:23:33.828Z,95094.41
2022-09-20T19:26:08.729Z,95098.00
2022-09-20T19:28:36.241Z,95091.66
2022-09-20T19:31:03.357Z,95091.41
2022-09-20T19:33:30.427Z,95090.66
2022-09-20T19:35:59.168Z,95097.50
2022-09-20T19:38:25.865Z,95093.50
2022-09-20T19:40:59.565Z,95101.09
2022-09-20T19:43:44.813Z,95094.41
2022-09-20T19:46:14.424Z,95099.44
2022-09-20T19:48:55.160Z,95100.91
2022-09-20T19:51:22.538Z,95098.75
2022-09-20T19:53:50.271Z,95094.38
2022-09-20T19:56:21.548Z,95095.38
2022-09-20T19:58:53.037Z,95097.78
2022-09-20T20:01:22.673Z,95097.47
2022-09-20T20:03:54.253Z,95100.91
2022-09-20T20:06:33.398Z,95104.13
2022-09-20T20:09:13.326Z,95105.50
2022-09-20T20:12:01.724Z,95095.16
2022-09-20T20:15:02.995Z,95090.56
2022-09-20T20:18:07.039Z,95099.13
2022-09-20T20:20:47.701Z,95083.63
2022-09-20T20:23:35.811Z,95102.34
2022-09-20T20:26:08.973Z,95103.59
2022-09-20T20:28:37.605Z,95076.91
2022-09-20T20:31:06.272Z,95108.38
2022-09-20T20:33:33.609Z,95109.78
2022-09-20T20:36:02.087Z,95111.97
2022-09-20T20:38:36.493Z,95118.31
2022-09-20T20:41:11.793Z,95111.56
2022-09-20T20:43:41.626Z,95102.63
2022-09-20T20:46:11.077Z,95111.75
2022-09-20T20:48:38.228Z,95121.53
2022-09-20T20:51:08.850Z,95118.75
2022-09-20T20:53:37.890Z,95118.75
2022-09-20T20:56:07.699Z,95117.72
2022-09-20T20:58:36.916Z,95115.56
2022-09-20T21:01:05.848Z,95123.88
2022-09-20T21:03:33.617Z,95115.88
2022-09-20T21:06:00.462Z,95125.81
2022-09-20T21:08:32.633Z,95126.41
2022-09-20T21:11:10.373Z,95112.28
2022-09-20T21:13:40.493Z,95121.66
2022-09-20T21:16:11.185Z,95123.06
2022-09-20T21:18:39.874Z,95120.28
2022-09-20T21:21:35.274Z,95125.84
2022-09-20T21:24:05.243Z,95123.22
2022-09-20T21:26:34.268Z,95115.84
2022-09-20T21:29:03.081Z,95110.19
2022-09-20T21:31:33.439Z,95113.81
2022-09-20T21:34:00.737Z,95106.19
2022-09-20T21:36:29.792Z,95120.94
2022-09-20T21:38:56.974Z,95131.81
2022-09-20T21:41:31.611Z,95124.84
2022-09-20T21:44:00.477Z,95134.34
2022-09-20T21:46:29.597Z,95111.56
2022-09-20T21:48:58.185Z,95113.16
2022-09-20T21:51:26.136Z,95117.88
2022-09-20T21:53:54.392Z,95115.06
2022-09-20T21:56:21.200Z,95106.66
2022-09-20T21:58:48.066Z,95109.00
2022-09-20T22:01:17.470Z,95102.97
2022-09-20T22:03:52.847Z,95126.44
2022-09-20T22:06:22.255Z,95124.47
2022-09-20T22:08:52.389Z,95119.31
2022-09-20T22:11:22.018Z,95124.84
2022-09-20T22:13:50.810Z,95114.84
2022-09-20T22:16:27.026Z,95114.28
2022-09-20T22:18:54.351Z,95108.94
2022-09-20T22:21:26.856Z,95106.41
2022-09-20T22:23:58.945Z,95108.19
2022-09-20T22:26:30.050Z,95109.34
2022-09-20T22:29:00.916Z,95117.50
2022-09-20T22:31:30.186Z,95115.72
2022-09-20T22:34:00.085Z,95114.81
2022-09-20T22:36:32.532Z,95125.88
2022-09-20T22:38:59.253Z,95111.91
2022-09-20T22:41:26.186Z,95117.13
2022-09-20T22:43:53.434Z,95119.47
2022-09-20T22:46:23.003Z,95138.28
2022-09-20T22:48:50.523Z,95125.97
2022-09-20T22:51:26.156Z,95121.41
2022-09-20T22:53:53.176Z,95131.25
2022-09-20T22:56:21.269Z,95122.13
2022-09-20T22:58:52.588Z,95124.13
2022-09-20T23:01:24.877Z,95132.53
2022-09-20T23:04:04.569Z,95144.09
2022-09-20T23:06:34.629Z,95140.28
2022-09-20T23:09:04.402Z,95136.13
2022-09-20T23:11:31.534Z,95135.47
2022-09-20T23:14:05.224Z,95137.63
2022-09-20T23:16:34.525Z,95126.34
2022-09-20T23:19:02.170Z,95136.22
2022-09-20T23:21:29.956Z,95130.56
2022-09-20T23:24:02.091Z,95133.66
2022-09-20T23:26:31.404Z,95130.69
2022-09-20T23:29:16.308Z,95129.78
2022-09-20T23:31:46.430Z,95124.53
2022-09-20T23:34:15.024Z,95116.19
2022-09-20T23:36:42.151Z,95125.75
2022-09-20T23:39:10.107Z,95125.63
2022-09-20T23:41:38.652Z,95132.59
2022-09-20T23:44:06.873Z,95124.03
2022-09-20T23:46:34.446Z,95132.38
2022-09-20T23:49:01.867Z,95124.66
2022-09-20T23:51:29.601Z,95119.88
2022-09-20T23:53:57.000Z,95127.88
2022-09-20T23:56:24.191Z,95120.13
2022-09-20T23:58:51.122Z,95122.44
